Time;durP1;ratioP1;P1;durP2;ratioP2;P2;SDS_P1;SDS_P2;PMS_P1;PMS_P2;Temp;Humidity;BMP_temperature;BMP_pressure;BME280_temperature;BME280_humidity;BME280_pressure;Samples;Min_cycle;Max_cycle;Signal;HPM_P1;HPM_P2
2019/09/25 00:00:16;;;;;;;3.7;1.9;;;;;;;;;;;;;
2019/09/25 00:02:42;;;;;;;4.5;2;;;;;;;;;;;;;
2019/09/25 00:05:10;;;;;;;3.8;2.1;;;;;;;;;;;;;
2019/09/25 00:07:35;;;;;;;2.9;1.7;;;;;;;;;;;;;
2019/09/25 00:09:58;;;;;;;4;1.8;;;;;;;;;;;;;
2019/09/25 00:12:23;;;;;;;3.5;1.9;;;;;;;;;;;;;
2019/09/25 00:14:48;;;;;;;2.5;1.5;;;;;;;;;;;;;
2019/09/25 00:17:20;;;;;;;2.9;1.5;;;;;;;;;;;;;
2019/09/25 00:19:42;;;;;;;4.3;1.4;;;;;;;;;;;;;
2019/09/25 00:22:08;;;;;;;4.1;1.7;;;;;;;;;;;;;
2019/09/25 00:24:36;;;;;;;4.3;1.7;;;;;;;;;;;;;
2019/09/25 00:26:58;;;;;;;3.2;1.7;;;;;;;;;;;;;
2019/09/25 00:29:23;;;;;;;5.1;1.8;;;;;;;;;;;;;
2019/09/25 00:31:48;;;;;;;3.3;1.4;;;;;;;;;;;;;
2019/09/25 00:34:14;;;;;;;4.6;1.8;;;;;;;;;;;;;
2019/09/25 00:36:40;;;;;;;2.7;1.5;;;;;;;;;;;;;
2019/09/25 00:39:05;;;;;;;5.3;1.9;;;;;;;;;;;;;
2019/09/25 00:41:28;;;;;;;3.7;1.9;;;;;;;;;;;;;
2019/09/25 00:43:58;;;;;;;4.2;1.7;;;;;;;;;;;;;
2019/09/25 00:46:24;;;;;;;3.8;1.6;;;;;;;;;;;;;
2019/09/25 00:48:51;;;;;;;3.7;1.8;;;;;;;;;;;;;
2019/09/25 00:51:14;;;;;;;4.8;1.4;;;;;;;;;;;;;
2019/09/25 00:53:42;;;;;;;2.7;1.4;;;;;;;;;;;;;
2019/09/25 00:56:12;;;;;;;4;1.6;;;;;;;;;;;;;
2019/09/25 00:58:33;;;;;;;2.9;1.5;;;;;;;;;;;;;
2019/09/25 01:00:59;;;;;;;4.5;1.7;;;;;;;;;;;;;
2019/09/25 01:03:29;;;;;;;4.9;1.8;;;;;;;;;;;;;
2019/09/25 01:05:52;;;;;;;3.1;2;;;;;;;;;;;;;
2019/09/25 01:08:15;;;;;;;3.7;1.9;;;;;;;;;;;;;
2019/09/25 01:10:44;;;;;;;3.3;1.8;;;;;;;;;;;;;
2019/09/25 01:13:11;;;;;;;3.8;1.5;;;;;;;;;;;;;
2019/09/25 01:15:32;;;;;;;2.7;1.6;;;;;;;;;;;;;
2019/09/25 01:18:00;;;;;;;3.3;1.7;;;;;;;;;;;;;
2019/09/25 01:20:27;;;;;;;3.6;1.9;;;;;;;;;;;;;
2019/09/25 01:22:52;;;;;;;3.1;1.8;;;;;;;;;;;;;
2019/09/25 01:25:20;;;;;;;3.1;1.7;;;;;;;;;;;;;
2019/09/25 01:27:45;;;;;;;4;1.7;;;;;;;;;;;;;
2019/09/25 01:30:09;;;;;;;2.6;1.8;;;;;;;;;;;;;
2019/09/25 01:32:34;;;;;;;2.6;1.8;;;;;;;;;;;;;
2019/09/25 01:35:05;;;;;;;4;2.1;;;;;;;;;;;;;
2019/09/25 01:37:27;;;;;;;4.1;1.7;;;;;;;;;;;;;
2019/09/25 01:39:51;;;;;;;4.2;1.6;;;;;;;;;;;;;
2019/09/25 01:42:15;;;;;;;4.5;1.5;;;;;;;;;;;;;
2019/09/25 01:44:42;;;;;;;2.6;1.7;;;;;;;;;;;;;
2019/09/25 01:47:27;;;;;;;2.9;1.7;;;;;;;;;;;;;
2019/09/25 01:49:54;;;;;;;3.4;1.9;;;;;;;;;;;;;
2019/09/25 01:52:27;;;;;;;4.3;1.8;;;;;;;;;;;;;
2019/09/25 01:54:53;;;;;;;2.2;1.7;;;;;;;;;;;;;
2019/09/25 01:57:16;;;;;;;3.6;1.8;;;;;;;;;;;;;
2019/09/25 01:59:44;;;;;;;3.6;1.8;;;;;;;;;;;;;
2019/09/25 02:02:11;;;;;;;2.7;1.8;;;;;;;;;;;;;
2019/09/25 02:04:34;;;;;;;3.8;2;;;;;;;;;;;;;
2019/09/25 02:07:03;;;;;;;4.9;1.7;;;;;;;;;;;;;
2019/09/25 02:09:27;;;;;;;3;1.6;;;;;;;;;;;;;
2019/09/25 02:11:55;;;;;;;3.3;1.7;;;;;;;;;;;;;
2019/09/25 02:14:20;;;;;;;2.8;1.8;;;;;;;;;;;;;
2019/09/25 02:16:50;;;;;;;4.2;1.8;;;;;;;;;;;;;
2019/09/25 02:19:13;;;;;;;3.8;1.6;;;;;;;;;;;;;
2019/09/25 02:21:37;;;;;;;3.9;2;;;;;;;;;;;;;
2019/09/25 02:24:03;;;;;;;4.1;1.7;;;;;;;;;;;;;
2019/09/25 02:26:30;;;;;;;3.9;1.8;;;;;;;;;;;;;
2019/09/25 02:28:53;;;;;;;4.9;1.7;;;;;;;;;;;;;
2019/09/25 02:31:26;;;;;;;3.2;1.7;;;;;;;;;;;;;
2019/09/25 02:33:53;;;;;;;3.7;1.9;;;;;;;;;;;;;
2019/09/25 02:36:26;;;;;;;4.4;2.1;;;;;;;;;;;;;
2019/09/25 02:38:55;;;;;;;4.5;1.7;;;;;;;;;;;;;
2019/09/25 02:41:22;;;;;;;4.6;1.8;;;;;;;;;;;;;
2019/09/25 02:43:50;;;;;;;3.7;1.7;;;;;;;;;;;;;
2019/09/25 02:46:14;;;;;;;3.6;1.8;;;;;;;;;;;;;
2019/09/25 02:48:38;;;;;;;2.3;1.6;;;;;;;;;;;;;
2019/09/25 02:51:03;;;;;;;3.3;2;;;;;;;;;;;;;
2019/09/25 02:53:30;;;;;;;3.7;1.6;;;;;;;;;;;;;
2019/09/25 02:55:57;;;;;;;2.9;1.9;;;;;;;;;;;;;
2019/09/25 02:58:21;;;;;;;5.6;1.9;;;;;;;;;;;;;
2019/09/25 03:01:21;;;;;;;4.1;1.9;;;;;;;;;;;;;
2019/09/25 03:03:45;;;;;;;3.2;1.8;;;;;;;;;;;;;
2019/09/25 03:06:14;;;;;;;4.5;2;;;;;;;;;;;;;
2019/09/25 03:08:39;;;;;;;2.9;1.8;;;;;;;;;;;;;
2019/09/25 03:11:03;;;;;;;4.8;1.7;;;;;;;;;;;;;
2019/09/25 03:13:28;;;;;;;3.1;1.7;;;;;;;;;;;;;
2019/09/25 03:15:57;;;;;;;4;1.8;;;;;;;;;;;;;
2019/09/25 03:18:18;;;;;;;2.4;1.6;;;;;;;;;;;;;
2019/09/25 03:20:44;;;;;;;5.4;1.7;;;;;;;;;;;;;
2019/09/25 03:23:13;;;;;;;4.7;1.6;;;;;;;;;;;;;
2019/09/25 03:25:37;;;;;;;7.5;1.6;;;;;;;;;;;;;
2019/09/25 03:28:01;;;;;;;3.9;1.8;;;;;;;;;;;;;
2019/09/25 03:30:25;;;;;;;4.5;1.8;;;;;;;;;;;;;
2019/09/25 03:32:51;;;;;;;3.5;2;;;;;;;;;;;;;
2019/09/25 03:35:18;;;;;;;1.9;1.4;;;;;;;;;;;;;
2019/09/25 03:37:41;;;;;;;4;1.8;;;;;;;;;;;;;
2019/09/25 03:40:06;;;;;;;3.6;1.7;;;;;;;;;;;;;
2019/09/25 03:42:33;;;;;;;5;1.7;;;;;;;;;;;;;
2019/09/25 03:44:59;;;;;;;3.8;1.9;;;;;;;;;;;;;
2019/09/25 03:47:23;;;;;;;4;1.6;;;;;;;;;;;;;
2019/09/25 03:49:48;;;;;;;3.5;1.7;;;;;;;;;;;;;
2019/09/25 03:52:14;;;;;;;3;1.8;;;;;;;;;;;;;
2019/09/25 03:54:42;;;;;;;2.6;1.6;;;;;;;;;;;;;
2019/09/25 03:57:07;;;;;;;2.1;1.5;;;;;;;;;;;;;
2019/09/25 03:59:40;;;;;;;5.8;1.6;;;;;;;;;;;;;
2019/09/25 04:02:34;;;;;;;3.3;1.8;;;;;;;14.36;86.00781;933.3058;;;;
2019/09/25 04:05:03;;;;;;;4.8;3.2;;;;;;;14.33;86.14063;933.3261;;;;
2019/09/25 04:07:27;;;;;;;4.8;3;;;;;;;14.36;86.19434;933.3442;;;;
2019/09/25 04:09:55;;;;;;;5.2;3.9;;;;;;;14.34;86.14258;933.3878;;;;
2019/09/25 04:12:27;;;;;;;5.4;3.2;;;;;;;14.37;86.12695;933.3865;;;;
2019/09/25 04:14:55;;;;;;;4.1;2.6;;;;;;;14.39;86.37012;933.448;;;;
2019/09/25 04:17:27;;;;;;;4.2;2;;;;;;;14.37;86.69141;933.4473;;;;
2019/09/25 04:19:57;;;;;;;3.6;1.5;;;;;;;14.37;86.4834;933.3577;;;;
2019/09/25 04:22:25;;;;;;;2.6;1.7;;;;;;;14.28;86.48926;933.2762;;;;
2019/09/25 04:24:51;;;;;;;2.8;1.8;;;;;;;14.15;86.80957;933.2833;;;;
2019/09/25 04:27:21;;;;;;;2.7;1.8;;;;;;;14.21;86.3252;933.2393;;;;
2019/09/25 04:29:51;;;;;;;2.6;1.7;;;;;;;14.24;86.49121;933.3417;;;;
2019/09/25 04:32:22;;;;;;;3.7;1.9;;;;;;;14.29;86.30664;933.3371;;;;
2019/09/25 04:34:50;;;;;;;3.9;2;;;;;;;14.35;85.89063;933.3892;;;;
2019/09/25 04:37:22;;;;;;;2.8;1.7;;;;;;;14.41;85.73047;933.4781;;;;
2019/09/25 04:39:54;;;;;;;3.5;1.8;;;;;;;14.41;85.16602;933.3997;;;;
2019/09/25 04:42:33;;;;;;;3.9;2;;;;;;;14.18;86.27148;933.3606;;;;
2019/09/25 04:44:59;;;;;;;3.6;1.8;;;;;;;14.18;86.57324;933.3134;;;;
2019/09/25 04:47:27;;;;;;;4.4;2.1;;;;;;;14.03;87.47266;933.2808;;;;
2019/09/25 04:49:55;;;;;;;2.3;1.9;;;;;;;14.09;87.22461;933.2536;;;;
2019/09/25 04:52:33;;;;;;;4.1;1.6;;;;;;;14.03;87.23145;933.1992;;;;
2019/09/25 04:54:57;;;;;;;2.9;1.5;;;;;;;14.05;87.01758;933.0916;;;;
2019/09/25 04:57:23;;;;;;;4.4;1.8;;;;;;;14.03;86.83008;933.2336;;;;
2019/09/25 04:59:54;;;;;;;3.4;1.9;;;;;;;14.06;86.37695;933.2123;;;;
2019/09/25 05:02:18;;;;;;;3.2;2.1;;;;;;;14.1;86.29199;933.2191;;;;
2019/09/25 05:04:48;;;;;;;4.7;2;;;;;;;14.11;86.15723;933.2485;;;;
2019/09/25 05:07:14;;;;;;;4.1;2.4;;;;;;;14.18;86.41016;933.1981;;;;
2019/09/25 05:09:42;;;;;;;3.4;1.9;;;;;;;14.19;86.0332;933.2291;;;;
2019/09/25 05:12:10;;;;;;;3.7;1.7;;;;;;;14.26;85.98828;933.3111;;;;
2019/09/25 05:14:35;;;;;;;4.3;2.2;;;;;;;14.22;86.0752;933.3108;;;;
2019/09/25 05:17:02;;;;;;;6.2;2.1;;;;;;;14.22;86.01758;933.3716;;;;
2019/09/25 05:19:36;;;;;;;4.5;2.1;;;;;;;14.12;86.3877;933.3558;;;;
2019/09/25 05:22:00;;;;;;;4.9;1.9;;;;;;;14.03;86.94531;933.3872;;;;
2019/09/25 05:24:28;;;;;;;3.4;1.7;;;;;;;14.05;87.00684;933.3717;;;;
2019/09/25 05:26:57;;;;;;;15.2;2.2;;;;;;;14.06;87.1709;933.4293;;;;
2019/09/25 05:29:28;;;;;;;6.2;1.8;;;;;;;14.1;86.85645;933.4032;;;;
2019/09/25 05:32:00;;;;;;;8.2;2;;;;;;;14.04;86.90137;933.4296;;;;
2019/09/25 05:34:26;;;;;;;2.6;1.5;;;;;;;13.93;87.16895;933.4289;;;;
2019/09/25 05:36:54;;;;;;;2.7;1.6;;;;;;;13.83;87.80273;933.4316;;;;
2019/09/25 05:39:20;;;;;;;5.9;1.6;;;;;;;13.88;87.53809;933.4199;;;;
2019/09/25 05:41:45;;;;;;;2.3;1.5;;;;;;;13.97;87.03613;933.4101;;;;
2019/09/25 05:44:12;;;;;;;3.5;1.9;;;;;;;14;86.83594;933.4313;;;;
2019/09/25 05:46:38;;;;;;;4;1.7;;;;;;;14.07;86.65527;933.4716;;;;
2019/09/25 05:49:11;;;;;;;5.3;1.8;;;;;;;14.11;86.66211;933.5064;;;;
2019/09/25 05:51:42;;;;;;;4.1;1.8;;;;;;;14.09;87.0498;933.433;;;;
2019/09/25 05:54:12;;;;;;;3.3;2;;;;;;;13.92;87.78711;933.4042;;;;
2019/09/25 05:56:37;;;;;;;3.2;1.8;;;;;;;13.94;87.95313;933.4504;;;;
2019/09/25 05:59:14;;;;;;;5.6;1.7;;;;;;;14.08;87.49512;933.4763;;;;
2019/09/25 06:01:42;;;;;;;8;2.1;;;;;;;14.18;87.26367;933.4207;;;;
2019/09/25 06:04:08;;;;;;;5.9;1.9;;;;;;;14.26;86.99023;933.4777;;;;
2019/09/25 06:06:35;;;;;;;3.1;1.5;;;;;;;14.28;86.20117;933.4565;;;;
2019/09/25 06:09:04;;;;;;;5.4;2;;;;;;;14.29;86.01855;933.3875;;;;
2019/09/25 06:11:34;;;;;;;5.9;1.7;;;;;;;14.21;86.1748;933.4219;;;;
2019/09/25 06:14:00;;;;;;;3.8;1.7;;;;;;;14.19;86.32129;933.4526;;;;
2019/09/25 06:16:29;;;;;;;3.3;1.8;;;;;;;14.16;86.24512;933.4041;;;;
2019/09/25 06:18:53;;;;;;;7.1;1.9;;;;;;;14.23;86.50098;933.5053;;;;
2019/09/25 06:21:24;;;;;;;3.1;1.6;;;;;;;14.27;86.37207;933.5463;;;;
2019/09/25 06:23:52;;;;;;;4.7;1.6;;;;;;;14.41;86.06445;933.5222;;;;
2019/09/25 06:26:24;;;;;;;2.5;2;;;;;;;14.49;85.67773;933.5193;;;;
2019/09/25 06:28:51;;;;;;;9;1.9;;;;;;;14.53;85.56934;933.5261;;;;
2019/09/25 06:31:19;;;;;;;4.7;1.9;;;;;;;14.45;86.14258;933.5231;;;;
2019/09/25 06:33:51;;;;;;;5.6;1.9;;;;;;;14.5;86.41895;933.5784;;;;
2019/09/25 06:36:16;;;;;;;11.1;2;;;;;;;14.48;86.24023;933.558;;;;
2019/09/25 06:38:44;;;;;;;2.9;1.4;;;;;;;14.46;86.30371;933.5734;;;;
2019/09/25 06:41:19;;;;;;;3.8;1.6;;;;;;;14.49;86.58789;933.5978;;;;
2019/09/25 06:43:46;;;;;;;6.4;1.6;;;;;;;14.55;86.62109;933.6075;;;;
2019/09/25 06:46:13;;;;;;;4.3;2.1;;;;;;;14.67;86.45117;933.5885;;;;
2019/09/25 06:48:37;;;;;;;18.4;3.7;;;;;;;14.73;86.2207;933.6077;;;;
2019/09/25 06:51:07;;;;;;;19.2;4.6;;;;;;;14.63;85.93457;933.6124;;;;
2019/09/25 06:53:28;;;;;;;10.7;3.1;;;;;;;14.55;85.53027;933.597;;;;
2019/09/25 06:55:56;;;;;;;6;2;;;;;;;14.53;85.15625;933.6077;;;;
2019/09/25 06:58:27;;;;;;;7.9;2.2;;;;;;;14.57;86.1084;933.6241;;;;
2019/09/25 07:00:52;;;;;;;6.3;1.6;;;;;;;14.48;86.06738;933.6908;;;;
2019/09/25 07:03:22;;;;;;;4.4;1.7;;;;;;;14.52;86.08594;933.6864;;;;
2019/09/25 07:05:49;;;;;;;5.6;1.7;;;;;;;14.54;86.08008;933.65;;;;
2019/09/25 07:08:18;;;;;;;4.4;1.4;;;;;;;14.6;86.09277;933.7317;;;;
2019/09/25 07:10:42;;;;;;;6;2.2;;;;;;;14.5;86.24414;933.7723;;;;
2019/09/25 07:13:12;;;;;;;2.4;1.7;;;;;;;14.31;86.62109;933.7925;;;;
2019/09/25 07:15:41;;;;;;;5.2;2;;;;;;;13.92;88.95996;933.8228;;;;
2019/09/25 07:18:17;;;;;;;4.4;2.2;;;;;;;13.94;89.56445;933.9083;;;;
2019/09/25 07:20:44;;;;;;;5.3;2;;;;;;;14.11;88.91895;933.9683;;;;
2019/09/25 07:23:15;;;;;;;4.3;1.8;;;;;;;14.11;88.92969;933.9275;;;;
2019/09/25 07:26:11;;;;;;;2.5;1.7;;;;;;;14.1;88.74414;933.9902;;;;
2019/09/25 07:28:22;;;;;;;5.6;2;;;;;;;14.24;88.26465;933.96;;;;
2019/09/25 07:30:52;;;;;;;5.2;2.6;;;;;;;14.34;87.83594;933.93;;;;
2019/09/25 07:33:35;;;;;;;7.1;3.5;;;;;;;14.45;87.17969;933.9252;;;;
2019/09/25 07:36:03;;;;;;;5.1;2.9;;;;;;;14.48;87.28906;934.0482;;;;
2019/09/25 07:38:28;;;;;;;4.6;2.9;;;;;;;14.49;87.84375;934.0344;;;;
2019/09/25 07:41:17;;;;;;;5.2;3;;;;;;;14.65;87.24219;933.9894;;;;
2019/09/25 07:44:06;;;;;;;7.5;2.9;;;;;;;14.79;86.56641;933.9322;;;;
2019/09/25 07:48:03;;;;;;;7.8;3;;;;;;;14.96;86.08105;933.9783;;;;
2019/09/25 07:50:32;;;;;;;6.4;3.1;;;;;;;15.21;84.84961;933.9917;;;;
2019/09/25 07:53:04;;;;;;;4.6;2.4;;;;;;;15.28;84.27344;933.9548;;;;
2019/09/25 07:55:36;;;;;;;5;2.3;;;;;;;15.09;84.43457;934.0008;;;;
2019/09/25 07:58:21;;;;;;;4.9;2.5;;;;;;;14.89;85.35156;933.996;;;;
2019/09/25 08:00:46;;;;;;;11.4;3.1;;;;;;;14.98;86.53418;934.0261;;;;
2019/09/25 08:03:14;;;;;;;19.9;11.1;;;;;;;15.05;86.61816;934.0157;;;;
2019/09/25 08:05:40;;;;;;;7.9;3.4;;;;;;;15.17;86.35449;933.9786;;;;
2019/09/25 08:08:05;;;;;;;5.7;2.6;;;;;;;15.34;85.8457;933.9995;;;;
2019/09/25 08:10:39;;;;;;;5.6;3.4;;;;;;;15.48;84.82031;934.0698;;;;
2019/09/25 08:13:18;;;;;;;7.2;2.8;;;;;;;15.52;85.21191;934.0859;;;;
2019/09/25 08:15:43;;;;;;;12.8;2.3;;;;;;;15.53;84.77246;934.1172;;;;
2019/09/25 08:18:12;;;;;;;7.2;1.7;;;;;;;15.57;84.28516;934.1245;;;;
2019/09/25 08:20:41;;;;;;;10.8;2;;;;;;;15.65;85.15527;934.0541;;;;
2019/09/25 08:23:13;;;;;;;5.8;1.7;;;;;;;15.75;84.07715;933.9841;;;;
2019/09/25 08:25:43;;;;;;;8.8;2;;;;;;;15.92;84.53711;934.0239;;;;
2019/09/25 08:28:13;;;;;;;4.4;1.6;;;;;;;16.14;83.60742;933.9969;;;;
2019/09/25 08:30:41;;;;;;;3.5;1.5;;;;;;;16.38;83.04102;933.9354;;;;
2019/09/25 08:33:12;;;;;;;3;1.5;;;;;;;16.71;82.15332;933.9512;;;;
2019/09/25 08:35:40;;;;;;;2.4;1.4;;;;;;;17.29;80.62793;933.9433;;;;
2019/09/25 08:38:25;;;;;;;2.9;1.2;;;;;;;17.87;77.43457;933.9014;;;;
2019/09/25 08:40:57;;;;;;;2.4;1;;;;;;;17.81;74.37207;933.7883;;;;
2019/09/25 08:43:25;;;;;;;2.5;1;;;;;;;17.84;74.50391;933.7693;;;;
2019/09/25 08:45:59;;;;;;;2.3;1;;;;;;;18;75.23828;933.8013;;;;
2019/09/25 08:48:31;;;;;;;2.5;1.2;;;;;;;18.32;75.10938;933.8086;;;;
2019/09/25 08:51:05;;;;;;;1.7;1.2;;;;;;;18.61;74.30859;933.8475;;;;
2019/09/25 08:53:37;;;;;;;2.9;1.4;;;;;;;18.96;69.85254;933.7865;;;;
2019/09/25 08:56:33;;;;;;;2.4;1.4;;;;;;;18.81;71.90039;933.8117;;;;
2019/09/25 08:59:05;;;;;;;2.9;1.5;;;;;;;18.55;73.86914;933.846;;;;
2019/09/25 09:01:35;;;;;;;2.5;1.6;;;;;;;18.4;74.49414;933.8452;;;;
2019/09/25 09:04:05;;;;;;;2.6;1.4;;;;;;;18.47;73.31934;933.8307;;;;
2019/09/25 09:06:32;;;;;;;3.3;1.3;;;;;;;18.43;71.2666;933.7899;;;;
2019/09/25 09:09:00;;;;;;;2.3;1.1;;;;;;;18.3;73.35059;933.81;;;;
2019/09/25 09:14:20;;;;;;;1.9;1.1;;;;;;;18.43;73.19727;933.7518;;;;
2019/09/25 09:16:55;;;;;;;1.6;1.1;;;;;;;18.16;72.6416;933.8159;;;;
2019/09/25 09:19:25;;;;;;;2;1;;;;;;;18.32;74.0752;933.7441;;;;
2019/09/25 09:21:55;;;;;;;2.4;1.1;;;;;;;18.91;73.79004;933.6953;;;;
2019/09/25 09:24:25;;;;;;;2.6;1.2;;;;;;;19.17;69.30176;933.6959;;;;
2019/09/25 09:26:56;;;;;;;4.4;1.2;;;;;;;19.13;69.26172;933.7219;;;;
2019/09/25 09:29:29;;;;;;;1.8;1.1;;;;;;;18.94;69.81348;933.7104;;;;
2019/09/25 09:31:50;;;;;;;2.1;1.1;;;;;;;18.73;72.16602;933.7551;;;;
2019/09/25 09:34:22;;;;;;;2.9;0.9;;;;;;;18.58;71.54785;933.7033;;;;
2019/09/25 09:36:54;;;;;;;2.3;0.8;;;;;;;18.31;68.90039;933.7065;;;;
2019/09/25 09:39:26;;;;;;;3.2;0.8;;;;;;;18.04;72.34277;933.7241;;;;
2019/09/25 09:41:50;;;;;;;2.4;0.9;;;;;;;18;73.87012;933.7031;;;;
2019/09/25 09:44:23;;;;;;;2.9;0.9;;;;;;;17.64;71.5459;933.7213;;;;
2019/09/25 09:46:59;;;;;;;3.8;0.9;;;;;;;17.5;73.44824;933.6956;;;;
2019/09/25 09:49:22;;;;;;;4.5;1.2;;;;;;;17.48;74.50293;933.7056;;;;
2019/09/25 09:52:25;;;;;;;4;1.1;;;;;;;17.36;74.68945;933.6809;;;;
2019/09/25 09:54:56;;;;;;;5.1;1;;;;;;;17.27;74.12988;933.7056;;;;
2019/09/25 09:57:22;;;;;;;2.9;1.1;;;;;;;17.1;75.59766;933.6907;;;;
2019/09/25 09:59:52;;;;;;;1.7;1.1;;;;;;;17.18;75.80664;933.6809;;;;
2019/09/25 10:02:25;;;;;;;2.3;1.1;;;;;;;17.25;75.8291;933.7134;;;;
2019/09/25 10:05:09;;;;;;;3.7;1.2;;;;;;;17.29;76.89355;933.7115;;;;
2019/09/25 10:10:13;;;;;;;1.8;1;;;;;;;17.1;78.80664;933.7416;;;;
2019/09/25 10:12:48;;;;;;;1.8;1;;;;;;;17.14;77.85254;933.726;;;;
2019/09/25 10:15:18;;;;;;;3.6;1.1;;;;;;;17.01;78.03711;933.6733;;;;
2019/09/25 10:17:50;;;;;;;3;1.2;;;;;;;17.12;80.0166;933.6903;;;;
2019/09/25 10:20:15;;;;;;;3.3;1.4;;;;;;;17.24;78.85547;933.6959;;;;
2019/09/25 10:22:42;;;;;;;10.3;1.5;;;;;;;17.29;79.0127;933.6336;;;;
2019/09/25 10:25:14;;;;;;;4.4;1.1;;;;;;;17.33;77.90918;933.664;;;;
2019/09/25 10:27:43;;;;;;;10.9;1.6;;;;;;;17.31;77.40527;933.6042;;;;
2019/09/25 10:30:14;;;;;;;13.5;2;;;;;;;17.28;78.25879;933.6306;;;;
2019/09/25 10:32:38;;;;;;;6.9;1.3;;;;;;;17.15;76.91504;933.6631;;;;
2019/09/25 10:35:09;;;;;;;3.9;1.2;;;;;;;16.99;78.26563;933.6408;;;;
2019/09/25 10:37:34;;;;;;;2.8;1.1;;;;;;;16.98;78.66992;933.6611;;;;
2019/09/25 10:40:08;;;;;;;2.7;0.9;;;;;;;16.91;79.35156;933.7051;;;;
2019/09/25 10:42:31;;;;;;;2.5;1;;;;;;;16.86;79.35352;933.6814;;;;
2019/09/25 10:45:04;;;;;;;4.8;1.2;;;;;;;16.89;80.20605;933.7347;;;;
2019/09/25 10:47:47;;;;;;;2.4;1.2;;;;;;;16.85;81.25293;933.6954;;;;
2019/09/25 10:50:19;;;;;;;3.8;1.3;;;;;;;16.79;81.39258;933.6883;;;;
2019/09/25 10:52:44;;;;;;;3.6;1.5;;;;;;;16.86;82.01953;933.6492;;;;
2019/09/25 10:55:10;;;;;;;3.7;1.6;;;;;;;16.81;82.50586;933.6655;;;;
2019/09/25 10:57:42;;;;;;;3.6;1.8;;;;;;;16.77;80.3584;933.6799;;;;
2019/09/25 11:00:12;;;;;;;6.2;2.8;;;;;;;16.6;81.16992;933.6597;;;;
2019/09/25 11:02:40;;;;;;;9.4;5.7;;;;;;;16.63;81.80176;933.6336;;;;
2019/09/25 11:05:07;;;;;;;9.1;6.2;;;;;;;16.85;82.85156;933.6639;;;;
2019/09/25 11:07:37;;;;;;;5.1;3.5;;;;;;;17.11;82.00684;933.6945;;;;
2019/09/25 11:10:13;;;;;;;8.4;7.5;;;;;;;17.36;80.95313;933.6472;;;;
2019/09/25 11:12:51;;;;;;;4.5;2.5;;;;;;;17.53;79.49902;933.6417;;;;
2019/09/25 11:15:22;;;;;;;4;1.7;;;;;;;17.57;77.68555;933.6487;;;;
2019/09/25 11:17:55;;;;;;;8.3;1.6;;;;;;;17.66;77.51563;933.5953;;;;
2019/09/25 11:20:22;;;;;;;7.5;1.7;;;;;;;17.76;77.33594;933.5228;;;;
2019/09/25 11:22:51;;;;;;;10.1;1.8;;;;;;;17.76;75.40918;933.4771;;;;
2019/09/25 11:25:18;;;;;;;13;2.7;;;;;;;18;76.85449;933.5226;;;;
2019/09/25 11:27:48;;;;;;;11.3;1.5;;;;;;;18.14;76.06543;933.5402;;;;
2019/09/25 11:30:14;;;;;;;16.1;2.1;;;;;;;18.17;76.59375;933.4877;;;;
2019/09/25 11:32:47;;;;;;;5;1.1;;;;;;;18.16;76.60254;933.4219;;;;
2019/09/25 11:35:22;;;;;;;3.1;1;;;;;;;18.28;74.19434;933.4207;;;;
2019/09/25 11:37:50;;;;;;;1.9;0.9;;;;;;;18.42;74.20801;933.4442;;;;
2019/09/25 11:40:24;;;;;;;2.8;1;;;;;;;18.55;73.24219;933.3652;;;;
2019/09/25 11:42:54;;;;;;;2.1;1.1;;;;;;;18.3;75.63965;933.4199;;;;
2019/09/25 11:45:21;;;;;;;3;1.1;;;;;;;18.21;75.74219;933.4171;;;;
2019/09/25 11:47:51;;;;;;;2.8;1.1;;;;;;;18.26;71.33398;933.3582;;;;
2019/09/25 11:50:27;;;;;;;3.8;1.1;;;;;;;18.15;72.7207;933.3834;;;;
2019/09/25 11:52:58;;;;;;;2.6;1;;;;;;;18.01;72.54688;933.3443;;;;
2019/09/25 11:55:39;;;;;;;1.8;0.9;;;;;;;17.67;70.84277;933.2866;;;;
2019/09/25 11:58:06;;;;;;;2.8;1;;;;;;;17.76;72.22852;933.27;;;;
2019/09/25 12:00:38;;;;;;;2.5;1.1;;;;;;;17.77;73.14648;933.2826;;;;
2019/09/25 12:02:58;;;;;;;2.8;1.1;;;;;;;17.65;74.9707;933.2921;;;;
2019/09/25 12:05:29;;;;;;;2.6;0.9;;;;;;;17.71;77.22168;933.2634;;;;
2019/09/25 12:07:58;;;;;;;3.5;1;;;;;;;17.85;77.17578;933.2438;;;;
2019/09/25 12:10:28;;;;;;;2.3;1.2;;;;;;;18.07;75.96094;933.2922;;;;
2019/09/25 12:12:55;;;;;;;2.7;1.2;;;;;;;18.5;73.76855;933.2459;;;;
2019/09/25 12:15:26;;;;;;;3.1;1;;;;;;;18.72;73.29102;933.2209;;;;
2019/09/25 12:18:00;;;;;;;3;1.1;;;;;;;18.72;71.26758;933.1934;;;;
2019/09/25 12:20:24;;;;;;;2.5;0.9;;;;;;;18.71;73.21973;933.1994;;;;
2019/09/25 12:23:00;;;;;;;3.4;1.1;;;;;;;18.79;73.64063;933.1944;;;;
2019/09/25 12:27:52;;;;;;;4.9;1.2;;;;;;;19.08;68.73047;933.207;;;;
2019/09/25 12:30:24;;;;;;;3.1;1.2;;;;;;;19.06;68.6582;933.2213;;;;
2019/09/25 12:33:06;;;;;;;3.4;1.3;;;;;;;18.92;66.66699;933.2908;;;;
2019/09/25 12:35:32;;;;;;;3.4;1.6;;;;;;;18.75;67.62012;933.2062;;;;
2019/09/25 12:38:13;;;;;;;3.7;1.5;;;;;;;18.64;72.37207;933.2061;;;;
2019/09/25 12:41:11;;;;;;;3.2;1.6;;;;;;;18.25;70.97168;933.1802;;;;
2019/09/25 12:43:35;;;;;;;2.4;1.5;;;;;;;18.08;73.92871;933.188;;;;
2019/09/25 12:47:26;;;;;;;4.1;1.6;;;;;;;17.74;75.72949;933.1144;;;;
2019/09/25 12:49:53;;;;;;;3.1;1.5;;;;;;;17.71;77.1875;932.9919;;;;
2019/09/25 12:52:16;;;;;;;4.7;1.5;;;;;;;17.65;78.2666;932.9811;;;;
2019/09/25 12:54:42;;;;;;;4.4;1.4;;;;;;;17.61;78.58594;932.9844;;;;
2019/09/25 12:57:16;;;;;;;4.3;1.3;;;;;;;17.59;76.85352;932.8962;;;;
2019/09/25 12:59:47;;;;;;;4.7;1.3;;;;;;;17.73;73.2334;932.9084;;;;
2019/09/25 13:02:53;;;;;;;3.8;1.4;;;;;;;17.85;75.09766;932.8766;;;;
2019/09/25 13:05:25;;;;;;;3.5;1.3;;;;;;;18;74.74121;932.89;;;;
2019/09/25 13:07:47;;;;;;;3.8;1.4;;;;;;;18.16;70.50293;932.8329;;;;
2019/09/25 13:10:17;;;;;;;3.3;1.7;;;;;;;18.27;76.08887;932.8959;;;;
2019/09/25 13:12:56;;;;;;;3;1.3;;;;;;;18.21;76.68164;932.9241;;;;
2019/09/25 13:15:25;;;;;;;2.8;1.5;;;;;;;18.05;73.44727;932.8472;;;;
2019/09/25 13:17:57;;;;;;;6.4;1.6;;;;;;;17.99;74.56543;932.8742;;;;
2019/09/25 13:20:25;;;;;;;9;2;;;;;;;17.95;74.79004;932.8495;;;;
2019/09/25 13:22:50;;;;;;;11.5;2;;;;;;;17.88;76.66016;932.9055;;;;
2019/09/25 13:25:17;;;;;;;5;1.5;;;;;;;17.96;75.40625;932.8558;;;;
2019/09/25 13:27:47;;;;;;;3.8;1.4;;;;;;;17.72;74.04199;932.8661;;;;
2019/09/25 13:30:18;;;;;;;5.8;2.2;;;;;;;17.71;76.54883;932.8752;;;;
2019/09/25 13:33:19;;;;;;;4.4;1.7;;;;;;;17.64;76.31543;932.9017;;;;
2019/09/25 13:35:44;;;;;;;8.6;2.6;;;;;;;17.59;77.43164;932.9437;;;;
2019/09/25 13:38:15;;;;;;;5;1.6;;;;;;;17.5;78.36914;932.93;;;;
2019/09/25 13:40:44;;;;;;;6.6;1.9;;;;;;;17.18;78.89063;932.9615;;;;
2019/09/25 13:43:21;;;;;;;7.3;1.8;;;;;;;17.01;80.22852;932.9468;;;;
2019/09/25 13:45:49;;;;;;;3.7;1.5;;;;;;;16.61;81.63672;932.952;;;;
2019/09/25 13:48:15;;;;;;;4.9;1.6;;;;;;;16.58;82.71973;932.9542;;;;
2019/09/25 13:50:53;;;;;;;3.9;1.6;;;;;;;16.51;82.29102;932.889;;;;
2019/09/25 13:53:18;;;;;;;4.5;1.6;;;;;;;16.54;81.86816;932.9053;;;;
2019/09/25 13:55:51;;;;;;;5.5;1.5;;;;;;;16.68;83.13184;932.8577;;;;
2019/09/25 13:58:19;;;;;;;3.7;1.5;;;;;;;16.6;80.83594;932.7336;;;;
2019/09/25 14:00:55;;;;;;;5.1;2;;;;;;;16.45;82.25488;932.8463;;;;
2019/09/25 14:03:31;;;;;;;6.3;2.3;;;;;;;16.43;81.71875;932.825;;;;
2019/09/25 14:06:01;;;;;;;5.3;2.2;;;;;;;16.55;81.96094;932.8014;;;;
2019/09/25 14:08:35;;;;;;;8.9;2.3;;;;;;;16.72;82.00391;932.8714;;;;
2019/09/25 14:11:09;;;;;;;4.4;2.1;;;;;;;16.58;81.13379;932.8883;;;;
2019/09/25 14:13:39;;;;;;;4.6;1.7;;;;;;;16.69;81.33887;932.8577;;;;
2019/09/25 14:16:11;;;;;;;4.6;1.6;;;;;;;16.9;80.83301;932.8828;;;;
2019/09/25 14:18:42;;;;;;;5.1;1.6;;;;;;;17.03;80.6377;932.9225;;;;
2019/09/25 14:21:12;;;;;;;4.9;1.5;;;;;;;17.23;80.7998;932.9125;;;;
2019/09/25 14:23:40;;;;;;;5.3;1.9;;;;;;;17.29;79.08203;932.8965;;;;
2019/09/25 14:26:13;;;;;;;4.6;1.7;;;;;;;17.4;80.66895;932.8527;;;;
2019/09/25 14:28:45;;;;;;;4.5;1.7;;;;;;;17.49;78.5625;932.8063;;;;
2019/09/25 14:33:50;;;;;;;3.5;1.9;;;;;;;17.7;77.91504;932.7789;;;;
2019/09/25 14:36:15;;;;;;;3.7;1.5;;;;;;;17.86;76.72461;932.8103;;;;
2019/09/25 14:38:44;;;;;;;6;1.8;;;;;;;17.91;76.62988;932.7782;;;;
2019/09/25 14:41:11;;;;;;;5.3;2.6;;;;;;;17.91;77.17578;932.8427;;;;
2019/09/25 14:43:43;;;;;;;12.4;7.9;;;;;;;17.74;78.25977;932.8906;;;;
2019/09/25 14:46:14;;;;;;;9.4;5.9;;;;;;;17.8;77.9209;932.9397;;;;
2019/09/25 14:48:40;;;;;;;7.8;2.1;;;;;;;17.94;78.07617;932.9545;;;;
2019/09/25 14:51:12;;;;;;;7.2;2.2;;;;;;;17.9;78.27539;933.0235;;;;
2019/09/25 14:53:39;;;;;;;6.7;1.8;;;;;;;17.86;77.42188;932.9666;;;;
2019/09/25 14:56:08;;;;;;;9.8;2.4;;;;;;;17.73;77.78418;932.9229;;;;
2019/09/25 14:58:40;;;;;;;6.8;2.3;;;;;;;17.44;77.07031;932.7833;;;;
2019/09/25 15:01:06;;;;;;;9.1;2.3;;;;;;;17.5;78.9834;932.7706;;;;
2019/09/25 15:03:35;;;;;;;7;2.4;;;;;;;17.66;78.4541;932.7861;;;;
2019/09/25 15:06:08;;;;;;;13.7;2.7;;;;;;;17.67;78.58398;932.8398;;;;
2019/09/25 15:08:33;;;;;;;6.2;2.4;;;;;;;17.76;78.4502;932.8109;;;;
2019/09/25 15:11:55;;;;;;;13.2;2.6;;;;;;;17.87;77.86426;932.8044;;;;
2019/09/25 15:14:27;;;;;;;17.4;3.8;;;;;;;17.9;78.72852;932.839;;;;
2019/09/25 15:16:55;;;;;;;10.2;2.9;;;;;;;17.89;78.33398;932.8102;;;;
2019/09/25 15:19:24;;;;;;;13.5;3.1;;;;;;;17.94;78.36523;932.9322;;;;
2019/09/25 15:21:50;;;;;;;6.6;2.3;;;;;;;17.75;77.56543;932.9128;;;;
2019/09/25 15:24:19;;;;;;;8.4;2.9;;;;;;;17.77;78.16016;932.926;;;;
2019/09/25 15:26:52;;;;;;;7.3;2.5;;;;;;;17.82;78.04199;932.9088;;;;
2019/09/25 15:29:16;;;;;;;5.6;2.3;;;;;;;17.84;76.78027;932.9366;;;;
2019/09/25 15:31:46;;;;;;;7.9;2;;;;;;;17.89;77.31152;932.9905;;;;
2019/09/25 15:34:17;;;;;;;5;1.8;;;;;;;17.89;76.17383;932.9875;;;;
2019/09/25 15:37:15;;;;;;;6.3;2;;;;;;;17.85;77.33984;933.0094;;;;
2019/09/25 15:39:56;;;;;;;8;1.6;;;;;;;17.66;79.96289;932.9745;;;;
2019/09/25 15:42:16;;;;;;;5.5;1.4;;;;;;;17.56;80.21191;932.9598;;;;
2019/09/25 15:44:47;;;;;;;7;1.7;;;;;;;17.59;79.31152;932.9148;;;;
2019/09/25 15:47:15;;;;;;;7;1.8;;;;;;;17.61;79.1543;932.9487;;;;
2019/09/25 15:49:48;;;;;;;6.7;2.1;;;;;;;17.3;79.90918;933.0419;;;;
2019/09/25 15:52:21;;;;;;;9.7;4.6;;;;;;;17.21;79.78809;933.0549;;;;
2019/09/25 15:54:55;;;;;;;8.5;4.7;;;;;;;17.12;80.14453;933.0338;;;;
2019/09/25 15:57:26;;;;;;;8.6;4.3;;;;;;;16.92;80.68555;933.0287;;;;
2019/09/25 15:59:56;;;;;;;6.9;3.4;;;;;;;16.92;80.80176;933.0167;;;;
2019/09/25 16:02:37;;;;;;;6;3.7;;;;;;;16.91;80.61426;933.0458;;;;
2019/09/25 16:05:05;;;;;;;9.9;5.1;;;;;;;16.71;80.94824;932.9487;;;;
2019/09/25 16:07:35;;;;;;;10.7;2.8;;;;;;;16.73;81.26465;933.0449;;;;